Ceres, New York
Current Conditions -  °F | °C
As of 7:56 AM on Saturday 20 Dec 2014 (Local Time) from KELZ Reporting Station
Overcast Overcast  
Wind Chill: 17°   Ceiling: 900
Heat Index: 23°   Visibility: 10mi
Dew Point: 19°   Wind: 5mph
Humidity: 85%   Direction: 320°NW
Pressure: 30.2"   Gusts: NA
Location:  42°N, 78.27°W
Report Text: KELZ 201256Z AUTO 32004KT 10SM OVC009 M05/M07 A3020 RMK AO2 SLP259 T10501072
Loading
Personal Weather Stations






























Interactive Weather Map New forecast layout! Learn more

10-Day Weather Forecast

Advertisements
Track Severe Weather on mobile